Aeroporto :
LOGIN :

Iscrizione | Disclaimer

   EN    FR    IT 

 










Sommario :    VFR   VFR Marginale   IFR   IFR Intensivo   IFR Molto Intensivo
Visibilità : 
Base nubi : 
>= 8 km
>= 3000ft
5 / 8 km
1000 / 3000 ft
1500m / 5 km
500 / 1000 ft
800 / 1500m
200 / 500 ft
< 800m
< 200 ft
Simboli :   Temporali  Nebbia  Neve Forte  Precipitazioni Forti  Vento > 20 kt
SIGMETs :   Varie  Temporali  Ghiacco  Turbolenza  Onda orograficha  Ceneri Vulcaniche






- Altitudine del aeroporto : 106 ft
- Codice IATA : XDA


LFBY - Dax Seyresse

ULTIMO METAR :
  • 171454Z 25007KT 220V280 9999 BKN013 BKN046 12/10 Q1029

METARs OBSOLETI :
  • 171400Z 25008KT 8000 BKN013 BKN046 12/09 Q1029
  • 171300Z 27004KT 230V310 8000 -RA SCT010 BKN053 12/10 Q1029

TAF TAF LFBY
Valido dal 17 a 09 ore il 17 a 18 ore UTC


170800Z 1709/1718 30007KT 3000 -RA SCT006 OVC013
BECMG 1712/1714 6000 NSW BKN030
TEMPO 1714/1718 4000 -SHRA BKN025TCU



MetMap, La meteo Aeronautica in un colpo d'occhio ! - Copyright ORBIFLY Dicembre 2007 - Disclaimer

ORBIFLY MET'MAP TEAM :

Programmazione e sviluppo : Alexandra Zaïnal
Concezione : Baudouin d'Aumeries
Aiuto per la programmazione : Marc-Olivier Méhu
Supporto tecnico e logistico : Manuel Goepfert
Aiuto per la traduzione : Arnaldo La Scala

Contatto : metmap@orbifly.com




FONTI E CREDITI :

   NOAA